createdAt,value
2023-03-22T00:00:54.162Z,99.47
2023-03-22T00:01:54.138Z,99.99
2023-03-22T00:02:54.137Z,98.96
2023-03-22T00:03:54.199Z,99.57
2023-03-22T00:04:54.087Z,99.88
2023-03-22T00:05:54.099Z,99.16
2023-03-22T00:06:54.049Z,99.37
2023-03-22T00:07:54.068Z,99.27
2023-03-22T00:08:54.052Z,99.57
2023-03-22T00:09:54.029Z,99.47
2023-03-22T00:10:54.052Z,98.65
2023-03-22T00:11:53.992Z,98.90
2023-03-22T00:12:53.998Z,99.99
2023-03-22T00:13:53.968Z,99.99
2023-03-22T00:14:54.223Z,99.99
2023-03-22T00:15:54.030Z,99.72
2023-03-22T00:16:54.007Z,99.99
2023-03-22T00:17:53.928Z,99.99
2023-03-22T00:18:53.972Z,99.99
2023-03-22T00:19:53.918Z,99.99
2023-03-22T00:20:53.905Z,99.99
2023-03-22T00:21:53.897Z,99.99
2023-03-22T00:22:53.944Z,99.99
2023-03-22T00:23:53.864Z,99.99
2023-03-22T00:24:53.864Z,99.99
2023-03-22T00:25:53.844Z,99.68
2023-03-22T00:26:53.831Z,99.16
2023-03-22T00:27:53.811Z,98.75
2023-03-22T00:28:53.810Z,98.04
2023-03-22T00:29:53.808Z,98.14
2023-03-22T00:30:53.829Z,98.80
2023-03-22T00:31:53.814Z,98.80
2023-03-22T00:32:53.761Z,98.80
2023-03-22T00:33:53.781Z,99.41
2023-03-22T00:34:53.749Z,98.96
2023-03-22T00:35:53.784Z,98.35
2023-03-22T00:36:53.704Z,97.74
2023-03-22T00:37:53.704Z,98.29
2023-03-22T00:38:53.699Z,98.60
2023-03-22T00:39:53.801Z,98.70
2023-03-22T00:40:53.669Z,99.01
2023-03-22T00:41:53.696Z,98.65
2023-03-22T00:42:53.655Z,97.88
2023-03-22T00:43:53.654Z,98.24
2023-03-22T00:44:53.615Z,97.83
2023-03-22T00:45:53.642Z,98.04
2023-03-22T00:46:53.599Z,97.33
2023-03-22T00:47:53.602Z,97.53
2023-03-22T00:48:53.596Z,97.53
2023-03-22T00:49:53.564Z,97.67
2023-03-22T00:50:53.589Z,97.33
2023-03-22T00:51:53.556Z,96.86
2023-03-22T00:52:53.535Z,97.47
2023-03-22T00:53:53.527Z,98.19
2023-03-22T00:54:53.514Z,97.88
2023-03-22T00:55:53.521Z,96.96
2023-03-22T00:56:53.529Z,97.06
2023-03-22T00:57:53.469Z,97.47
2023-03-22T00:58:53.465Z,98.03
2023-03-22T00:59:53.461Z,98.49
2023-03-22T01:00:53.539Z,97.98
2023-03-22T01:01:53.476Z,97.37
2023-03-22T01:02:53.484Z,96.66
2023-03-22T01:03:53.464Z,97.78
2023-03-22T01:04:53.396Z,97.78
2023-03-22T01:05:53.498Z,97.78
2023-03-22T01:06:53.369Z,97.83
2023-03-22T01:07:53.378Z,96.86
2023-03-22T01:08:53.355Z,97.47
2023-03-22T01:09:53.316Z,97.06
2023-03-22T01:10:53.329Z,96.71
2023-03-22T01:11:53.297Z,96.96
2023-03-22T01:12:53.316Z,96.55
2023-03-22T01:13:53.305Z,96.45
2023-03-22T01:14:53.305Z,96.41
2023-03-22T01:15:53.272Z,96.55
2023-03-22T01:16:53.268Z,97.16
2023-03-22T01:17:53.248Z,97.42
2023-03-22T01:18:53.230Z,96.41
2023-03-22T01:19:53.226Z,95.48
2023-03-22T01:20:53.198Z,96.14
2023-03-22T01:21:53.177Z,97.27
2023-03-22T01:22:53.173Z,98.08
2023-03-22T01:23:53.179Z,97.88
2023-03-22T01:24:53.184Z,97.42
2023-03-22T01:25:53.182Z,96.34
2023-03-22T01:26:53.125Z,97.16
2023-03-22T01:27:53.128Z,96.75
2023-03-22T01:28:53.108Z,97.27
2023-03-22T01:29:53.087Z,96.30
2023-03-22T01:30:53.145Z,95.94
2023-03-22T01:31:55.960Z,96.30
2023-03-22T01:32:53.083Z,95.89
2023-03-22T01:33:53.049Z,95.69
2023-03-22T01:34:53.047Z,95.38
2023-03-22T01:35:53.197Z,94.97
2023-03-22T01:36:53.068Z,94.87
2023-03-22T01:37:52.999Z,94.97
2023-03-22T01:38:53.011Z,94.87
2023-03-22T01:39:52.980Z,94.67
2023-03-22T01:40:52.976Z,94.15
2023-03-22T01:41:52.977Z,94.06
2023-03-22T01:42:52.977Z,94.46
2023-03-22T01:43:52.935Z,94.30
2023-03-22T01:44:52.932Z,94.77
2023-03-22T01:45:52.973Z,94.36
2023-03-22T01:46:52.930Z,93.74
2023-03-22T01:47:53.003Z,93.89
2023-03-22T01:48:52.902Z,94.71
2023-03-22T01:49:52.880Z,95.12
2023-03-22T01:50:52.852Z,94.81
2023-03-22T01:51:52.844Z,94.51
2023-03-22T01:52:52.845Z,94.40
2023-03-22T01:53:52.849Z,93.79
2023-03-22T01:54:52.838Z,93.74
2023-03-22T01:55:52.793Z,93.33
2023-03-22T01:56:52.785Z,92.62
2023-03-22T01:57:52.775Z,92.66
2023-03-22T01:58:52.776Z,93.48
2023-03-22T01:59:52.798Z,93.59
2023-03-22T02:00:52.739Z,93.74
2023-03-22T02:01:52.727Z,93.48
2023-03-22T02:02:52.782Z,93.89
2023-03-22T02:03:52.706Z,94.71
2023-03-22T02:04:52.719Z,95.18
2023-03-22T02:05:52.714Z,94.97
2023-03-22T02:06:52.666Z,95.48
2023-03-22T02:07:52.667Z,95.07
2023-03-22T02:08:52.678Z,94.62
2023-03-22T02:09:52.646Z,94.52
2023-03-22T02:10:52.848Z,94.11
2023-03-22T02:11:52.620Z,93.70
2023-03-22T02:12:52.611Z,94.77
2023-03-22T02:13:52.602Z,95.13
2023-03-22T02:14:52.580Z,94.93
2023-03-22T02:15:52.662Z,94.42
2023-03-22T02:16:52.580Z,94.73
2023-03-22T02:17:52.567Z,94.01
2023-03-22T02:18:52.554Z,94.32
2023-03-22T02:19:52.561Z,94.77
2023-03-22T02:20:52.506Z,94.32
2023-03-22T02:21:52.558Z,94.21
2023-03-22T02:22:52.519Z,94.46
2023-03-22T02:23:52.489Z,94.87
2023-03-22T02:24:52.470Z,95.07
2023-03-22T02:25:52.454Z,95.32
2023-03-22T02:26:52.466Z,95.12
2023-03-22T02:27:56.055Z,95.84
2023-03-22T02:28:52.419Z,95.63
2023-03-22T02:29:52.408Z,96.86
2023-03-22T02:30:52.465Z,96.59
2023-03-22T02:31:52.389Z,96.66
2023-03-22T02:32:52.403Z,98.13
2023-03-22T02:33:52.361Z,97.62
2023-03-22T02:34:52.368Z,98.24
2023-03-22T02:35:52.406Z,98.74
2023-03-22T02:36:52.326Z,98.80
2023-03-22T02:37:52.331Z,96.91
2023-03-22T02:38:52.465Z,97.72
2023-03-22T02:39:52.305Z,96.80
2023-03-22T02:40:52.280Z,97.21
2023-03-22T02:41:52.296Z,97.31
2023-03-22T02:42:52.264Z,97.62
2023-03-22T02:43:52.241Z,98.13
2023-03-22T02:44:52.249Z,97.21
2023-03-22T02:45:52.237Z,97.15
2023-03-22T02:46:52.322Z,99.51
2023-03-22T02:47:52.227Z,99.05
2023-03-22T02:48:52.218Z,98.65
2023-03-22T02:49:52.203Z,99.05
2023-03-22T02:50:52.181Z,98.44
2023-03-22T02:51:52.156Z,97.72
2023-03-22T02:52:52.140Z,97.66
2023-03-22T02:53:52.132Z,98.69
2023-03-22T02:54:52.120Z,99.10
2023-03-22T02:55:52.194Z,99.20
2023-03-22T02:56:52.111Z,98.58
2023-03-22T02:57:52.150Z,99.51
2023-03-22T02:58:52.093Z,98.95
2023-03-22T02:59:52.081Z,99.91
2023-03-22T03:00:52.120Z,98.65
2023-03-22T03:01:52.126Z,99.05
2023-03-22T03:02:52.043Z,98.44
2023-03-22T03:03:52.033Z,98.95
2023-03-22T03:04:52.042Z,97.82
2023-03-22T03:05:52.012Z,97.00
2023-03-22T03:06:52.084Z,97.52
2023-03-22T03:07:51.984Z,97.31
2023-03-22T03:08:51.974Z,97.72
2023-03-22T03:09:51.954Z,96.70
2023-03-22T03:10:51.960Z,96.91
2023-03-22T03:11:51.941Z,97.92
2023-03-22T03:12:52.090Z,97.97
2023-03-22T03:13:51.935Z,99.20
2023-03-22T03:14:51.904Z,98.58
2023-03-22T03:15:51.979Z,99.46
2023-03-22T03:16:51.879Z,98.03
2023-03-22T03:17:51.866Z,98.33
2023-03-22T03:18:52.129Z,97.52
2023-03-22T03:19:51.852Z,98.99
2023-03-22T03:20:51.825Z,99.66
2023-03-22T03:21:51.831Z,98.70
2023-03-22T03:22:51.795Z,97.98
2023-03-22T03:23:51.826Z,97.27
2023-03-22T03:24:51.816Z,96.70
2023-03-22T03:25:51.781Z,97.72
2023-03-22T03:26:51.767Z,98.13
2023-03-22T03:27:51.778Z,98.74
2023-03-22T03:28:51.770Z,97.72
2023-03-22T03:29:51.747Z,98.65
2023-03-22T03:30:51.746Z,97.62
2023-03-22T03:31:51.754Z,98.03
2023-03-22T03:32:51.704Z,97.92
2023-03-22T03:33:51.694Z,98.95
2023-03-22T03:34:51.680Z,98.85
2023-03-22T03:35:51.685Z,98.74
2023-03-22T03:36:51.669Z,98.65
2023-03-22T03:37:51.656Z,98.33
2023-03-22T03:38:51.629Z,97.52
2023-03-22T03:39:51.620Z,97.21
2023-03-22T03:40:51.695Z,98.03
2023-03-22T03:41:51.580Z,97.77
2023-03-22T03:42:51.588Z,98.44
2023-03-22T03:43:51.570Z,98.44
2023-03-22T03:44:51.571Z,98.24
2023-03-22T03:45:51.548Z,98.79
2023-03-22T03:46:51.713Z,99.99
2023-03-22T03:47:51.583Z,99.99
2023-03-22T03:48:51.501Z,99.99
2023-03-22T03:49:51.525Z,99.41
2023-03-22T03:50:51.552Z,97.52
2023-03-22T03:51:51.473Z,99.99
2023-03-22T03:52:51.510Z,99.15
2023-03-22T03:53:51.550Z,98.95
2023-03-22T03:54:51.434Z,98.74
2023-03-22T03:55:51.435Z,98.33
2023-03-22T03:56:51.478Z,98.79
2023-03-22T03:57:51.408Z,98.85
2023-03-22T03:58:51.421Z,98.54
2023-03-22T03:59:51.405Z,99.15
2023-03-22T04:00:51.372Z,98.38
2023-03-22T04:01:51.389Z,99.99
2023-03-22T04:02:51.366Z,99.99
2023-03-22T04:03:51.344Z,98.79
2023-03-22T04:04:51.428Z,99.71
2023-03-22T04:05:51.317Z,98.74
2023-03-22T04:06:51.307Z,99.20
2023-03-22T04:07:51.288Z,97.87
2023-03-22T04:08:51.316Z,98.28
2023-03-22T04:09:51.311Z,97.97
2023-03-22T04:10:51.376Z,99.20
2023-03-22T04:11:51.284Z,99.41
2023-03-22T04:12:51.431Z,98.49
2023-03-22T04:13:51.217Z,99.20
2023-03-22T04:14:51.206Z,98.99
2023-03-22T04:15:51.206Z,99.05
2023-03-22T04:16:52.561Z,97.92
2023-03-22T04:17:51.183Z,97.92
2023-03-22T04:18:51.235Z,96.39
2023-03-22T04:19:51.147Z,98.07
2023-03-22T04:20:51.169Z,98.58
2023-03-22T04:21:51.156Z,98.28
2023-03-22T04:22:51.219Z,98.13
2023-03-22T04:23:51.127Z,97.87
2023-03-22T04:24:51.349Z,97.66
2023-03-22T04:25:51.098Z,98.53
2023-03-22T04:26:51.076Z,99.99
2023-03-22T04:27:51.120Z,98.90
2023-03-22T04:28:51.085Z,97.77
2023-03-22T04:29:51.224Z,98.02
2023-03-22T04:30:51.210Z,98.90
2023-03-22T04:31:51.018Z,97.97
2023-03-22T04:32:51.750Z,97.66
2023-03-22T04:33:50.996Z,96.84
2023-03-22T04:34:51.093Z,97.05
2023-03-22T04:35:51.017Z,97.15
2023-03-22T04:36:51.055Z,97.05
2023-03-22T04:37:51.012Z,97.71
2023-03-22T04:38:50.966Z,98.33
2023-03-22T04:39:51.064Z,97.87
2023-03-22T04:40:50.959Z,97.09
2023-03-22T04:41:50.912Z,97.61
2023-03-22T04:42:50.896Z,97.09
2023-03-22T04:43:50.960Z,97.50
2023-03-22T04:44:50.858Z,97.61
2023-03-22T04:45:50.868Z,96.48
2023-03-22T04:46:51.056Z,97.09
2023-03-22T04:47:50.875Z,96.44
2023-03-22T04:48:50.808Z,95.82
2023-03-22T04:49:50.812Z,96.13
2023-03-22T04:50:50.790Z,95.66
2023-03-22T04:51:50.788Z,95.87
2023-03-22T04:52:50.795Z,95.31
2023-03-22T04:53:50.739Z,94.95
2023-03-22T04:54:51.438Z,95.92
2023-03-22T04:55:50.733Z,95.10
2023-03-22T04:56:50.734Z,95.05
2023-03-22T04:57:50.760Z,95.00
2023-03-22T04:58:50.685Z,94.34
2023-03-22T04:59:50.692Z,92.81
2023-03-22T05:00:50.688Z,92.65
2023-03-22T05:01:50.683Z,92.34
2023-03-22T05:02:50.682Z,91.52
2023-03-22T05:03:50.838Z,91.93
2023-03-22T05:04:50.621Z,91.87
2023-03-22T05:05:50.654Z,91.97
2023-03-22T05:06:50.600Z,93.96
2023-03-22T05:07:50.596Z,94.33
2023-03-22T05:08:50.614Z,94.02
2023-03-22T05:09:50.622Z,94.33
2023-03-22T05:10:50.556Z,94.89
2023-03-22T05:11:50.549Z,94.89
2023-03-22T05:12:50.529Z,94.68
2023-03-22T05:13:50.524Z,94.27
2023-03-22T05:14:50.535Z,94.89
2023-03-22T05:15:50.618Z,94.99
2023-03-22T05:16:50.480Z,94.33
2023-03-22T05:17:50.484Z,93.92
2023-03-22T05:18:50.474Z,93.41
2023-03-22T05:19:50.532Z,92.18
2023-03-22T05:20:50.442Z,91.87
2023-03-22T05:21:50.481Z,91.77
2023-03-22T05:22:50.419Z,91.46
2023-03-22T05:23:51.557Z,90.99
2023-03-22T05:24:50.382Z,90.58
2023-03-22T05:25:50.407Z,89.81
2023-03-22T05:26:51.088Z,90.67
2023-03-22T05:27:50.384Z,93.48
2023-03-22T05:28:50.350Z,93.74
2023-03-22T05:29:50.334Z,94.26
2023-03-22T05:30:50.327Z,93.70
2023-03-22T05:31:50.602Z,93.44
2023-03-22T05:32:50.305Z,93.90
2023-03-22T05:33:50.364Z,93.90
2023-03-22T05:34:50.277Z,93.60
2023-03-22T05:35:50.299Z,93.19
2023-03-22T05:36:50.281Z,93.49
2023-03-22T05:37:50.266Z,93.85
2023-03-22T05:38:50.226Z,95.18
2023-03-22T05:39:50.252Z,95.79
2023-03-22T05:40:50.212Z,95.86
2023-03-22T05:41:50.217Z,95.14
2023-03-22T05:42:50.200Z,95.75
2023-03-22T05:43:50.167Z,95.14
2023-03-22T05:44:50.183Z,95.28
2023-03-22T05:45:50.184Z,95.59
2023-03-22T05:46:50.160Z,95.95
2023-03-22T05:47:50.169Z,95.44
2023-03-22T05:48:50.137Z,95.09
2023-03-22T05:49:50.125Z,94.83
2023-03-22T05:50:50.205Z,93.86
2023-03-22T05:51:50.161Z,94.17
2023-03-22T05:52:50.082Z,94.07
2023-03-22T05:53:50.065Z,93.86
2023-03-22T05:54:50.072Z,93.86
2023-03-22T05:55:50.046Z,93.35
2023-03-22T05:56:50.076Z,93.20
2023-03-22T05:57:50.021Z,92.94
2023-03-22T05:58:50.020Z,92.94
2023-03-22T05:59:50.015Z,93.15
2023-03-22T06:00:49.988Z,93.10
2023-03-22T06:01:49.990Z,93.20
2023-03-22T06:02:50.073Z,92.69
2023-03-22T06:03:49.944Z,92.43
2023-03-22T06:04:49.986Z,93.04
2023-03-22T06:05:49.957Z,93.66
2023-03-22T06:06:49.914Z,94.27
2023-03-22T06:07:49.949Z,94.02
2023-03-22T06:08:49.930Z,92.90
2023-03-22T06:09:49.876Z,93.55
2023-03-22T06:10:49.882Z,94.02
2023-03-22T06:11:49.865Z,94.02
2023-03-22T06:12:49.905Z,93.51
2023-03-22T06:13:49.827Z,93.41
2023-03-22T06:14:49.859Z,93.47
2023-03-22T06:15:49.862Z,92.55
2023-03-22T06:16:49.909Z,93.20
2023-03-22T06:17:49.791Z,93.16
2023-03-22T06:18:49.789Z,92.75
2023-03-22T06:19:52.023Z,93.16
2023-03-22T06:20:49.757Z,92.81
2023-03-22T06:21:49.750Z,92.44
2023-03-22T06:22:49.753Z,92.24
2023-03-22T06:23:49.716Z,93.71
2023-03-22T06:24:49.712Z,93.47
2023-03-22T06:25:49.724Z,94.49
2023-03-22T06:26:49.678Z,93.88
2023-03-22T06:27:49.735Z,93.93
2023-03-22T06:28:49.667Z,94.14
2023-03-22T06:29:49.678Z,92.91
2023-03-22T06:30:49.788Z,93.18
2023-03-22T06:31:49.614Z,92.97
2023-03-22T06:32:49.653Z,92.87
2023-03-22T06:33:49.611Z,92.15
2023-03-22T06:34:49.583Z,91.91
2023-03-22T06:35:49.668Z,91.64
2023-03-22T06:36:49.637Z,91.80
2023-03-22T06:37:49.552Z,91.95
2023-03-22T06:38:49.556Z,92.36
2023-03-22T06:39:49.553Z,92.32
2023-03-22T06:40:49.537Z,91.70
2023-03-22T06:41:49.530Z,92.01
2023-03-22T06:42:49.483Z,91.66
2023-03-22T06:43:49.473Z,91.66
2023-03-22T06:44:49.468Z,91.25
2023-03-22T06:45:49.498Z,92.36
2023-03-22T06:46:49.451Z,92.21
2023-03-22T06:47:49.559Z,92.42
2023-03-22T06:48:49.423Z,91.96
2023-03-22T06:49:49.451Z,91.05
2023-03-22T06:50:49.401Z,91.15
2023-03-22T06:51:49.405Z,91.25
2023-03-22T06:52:49.380Z,91.15
2023-03-22T06:53:49.457Z,91.31
2023-03-22T06:54:49.389Z,90.08
2023-03-22T06:55:49.373Z,89.47
2023-03-22T06:56:49.340Z,90.49
2023-03-22T06:57:49.313Z,89.98
2023-03-22T06:58:49.355Z,89.47
2023-03-22T06:59:49.320Z,89.53
2023-03-22T07:00:49.290Z,89.94
2023-03-22T07:01:49.275Z,89.78
2023-03-22T07:02:52.234Z,89.63
2023-03-22T07:03:49.242Z,89.53
2023-03-22T07:04:49.386Z,89.43
2023-03-22T07:05:49.245Z,89.32
2023-03-22T07:06:49.213Z,90.14
2023-03-22T07:07:49.193Z,91.11
2023-03-22T07:08:50.865Z,91.16
2023-03-22T07:09:49.178Z,89.88
2023-03-22T07:10:49.227Z,91.11
2023-03-22T07:11:49.321Z,91.67
2023-03-22T07:12:49.153Z,90.86
2023-03-22T07:13:49.158Z,90.20
2023-03-22T07:14:49.134Z,90.25
2023-03-22T07:15:49.173Z,90.35
2023-03-22T07:16:49.159Z,90.35
2023-03-22T07:17:49.099Z,90.00
2023-03-22T07:18:49.092Z,89.90
2023-03-22T07:19:49.099Z,89.63
2023-03-22T07:20:49.048Z,90.10
2023-03-22T07:21:49.077Z,88.98
2023-03-22T07:22:49.080Z,90.04
2023-03-22T07:23:49.015Z,90.10
2023-03-22T07:24:56.670Z,89.90
2023-03-22T07:25:50.057Z,89.18
2023-03-22T07:26:48.992Z,89.08
2023-03-22T07:27:49.077Z,88.43
2023-03-22T07:28:48.996Z,88.32
2023-03-22T07:29:48.938Z,87.82
2023-03-22T07:30:49.169Z,88.32
2023-03-22T07:31:49.145Z,87.92
2023-03-22T07:32:49.197Z,87.82
2023-03-22T07:33:48.976Z,87.37
2023-03-22T07:34:48.894Z,86.61
2023-03-22T07:35:48.898Z,86.45
2023-03-22T07:36:48.881Z,87.16
2023-03-22T07:37:48.857Z,86.30
2023-03-22T07:38:48.841Z,85.60
2023-03-22T07:39:48.908Z,85.49
2023-03-22T07:40:48.814Z,85.60
2023-03-22T07:41:48.835Z,85.49
2023-03-22T07:42:48.848Z,85.80
2023-03-22T07:43:56.565Z,84.78
2023-03-22T07:44:50.068Z,85.39
2023-03-22T07:45:49.013Z,84.98
2023-03-22T07:46:48.851Z,85.39
2023-03-22T07:47:48.778Z,85.49
2023-03-22T07:48:48.746Z,84.80
2023-03-22T07:49:48.709Z,85.06
2023-03-22T07:50:48.747Z,84.45
2023-03-22T07:51:48.690Z,84.35
2023-03-22T07:52:48.722Z,83.48
2023-03-22T07:53:48.697Z,84.59
2023-03-22T07:54:48.669Z,84.31
2023-03-22T07:55:48.685Z,83.09
2023-03-22T07:56:48.660Z,82.82
2023-03-22T07:57:48.623Z,83.20
2023-03-22T07:58:48.646Z,84.09
2023-03-22T07:59:48.608Z,84.97
2023-03-22T08:00:48.616Z,83.29
2023-03-22T08:01:48.699Z,83.15
2023-03-22T08:02:48.692Z,82.65
2023-03-22T08:03:48.552Z,81.73
2023-03-22T08:04:51.544Z,81.98
2023-03-22T08:05:48.565Z,82.85
2023-03-22T08:06:48.520Z,82.51
2023-03-22T08:07:48.543Z,81.93
2023-03-22T08:08:48.565Z,81.43
2023-03-22T08:09:48.488Z,81.87
2023-03-22T08:10:49.396Z,82.38
2023-03-22T08:11:48.452Z,82.28
2023-03-22T08:12:48.488Z,82.18
2023-03-22T08:13:48.436Z,83.50
2023-03-22T08:14:48.454Z,82.51
2023-03-22T08:15:48.425Z,81.70
2023-03-22T08:16:48.458Z,82.75
2023-03-22T08:17:48.412Z,82.40
2023-03-22T08:18:48.406Z,82.61
2023-03-22T08:19:48.470Z,81.79
2023-03-22T08:20:48.371Z,81.59
2023-03-22T08:21:48.335Z,81.66
2023-03-22T08:22:48.377Z,81.25
2023-03-22T08:23:49.503Z,80.40
2023-03-22T08:24:48.323Z,81.35
2023-03-22T08:25:48.347Z,82.43
2023-03-22T08:26:48.278Z,80.26
2023-03-22T08:27:48.275Z,79.25
2023-03-22T08:28:48.264Z,78.91
2023-03-22T08:29:48.520Z,79.38
2023-03-22T08:30:48.261Z,79.65
2023-03-22T08:31:48.335Z,80.03
2023-03-22T08:32:48.207Z,79.56
2023-03-22T08:33:48.221Z,80.13
2023-03-22T08:34:48.196Z,79.63
2023-03-22T08:35:48.257Z,80.88
2023-03-22T08:36:48.165Z,80.13
2023-03-22T08:37:48.287Z,79.59
2023-03-22T08:38:48.392Z,79.04
2023-03-22T08:39:48.125Z,78.74
2023-03-22T08:40:48.156Z,78.98
2023-03-22T08:41:48.107Z,78.64
2023-03-22T08:42:48.110Z,79.35
2023-03-22T08:43:48.117Z,79.25
2023-03-22T08:44:48.097Z,78.44
2023-03-22T08:45:48.108Z,78.84
2023-03-22T08:46:48.074Z,78.94
2023-03-22T08:47:48.066Z,79.25
2023-03-22T08:48:48.052Z,79.18
2023-03-22T08:49:48.047Z,80.07
2023-03-22T08:50:48.063Z,80.98
2023-03-22T08:51:47.991Z,80.94
2023-03-22T08:52:47.998Z,80.03
2023-03-22T08:53:47.976Z,79.02
2023-03-22T08:54:48.281Z,80.44
2023-03-22T08:55:47.989Z,80.71
2023-03-22T08:56:47.938Z,79.85
2023-03-22T08:57:47.956Z,78.91
2023-03-22T08:58:47.919Z,78.80
2023-03-22T08:59:47.953Z,77.34
2023-03-22T09:00:49.327Z,77.48
2023-03-22T09:01:48.016Z,77.59
2023-03-22T09:02:47.882Z,79.00
2023-03-22T09:03:47.851Z,78.46
2023-03-22T09:04:48.001Z,77.04
2023-03-22T09:05:47.871Z,76.80
2023-03-22T09:06:47.849Z,76.36
2023-03-22T09:07:47.815Z,75.25
2023-03-22T09:08:47.802Z,74.71
2023-03-22T09:09:47.904Z,74.81
2023-03-22T09:10:47.781Z,74.00
2023-03-22T09:11:47.824Z,74.57
2023-03-22T09:12:47.858Z,74.98
2023-03-22T09:13:47.744Z,74.63
2023-03-22T09:14:47.721Z,73.69
2023-03-22T09:15:47.774Z,72.75
2023-03-22T09:16:47.711Z,72.17
2023-03-22T09:17:47.695Z,70.83
2023-03-22T09:18:47.733Z,70.32
2023-03-22T09:19:47.672Z,70.22
2023-03-22T09:20:47.668Z,69.31
2023-03-22T09:21:47.641Z,70.62
2023-03-22T09:22:47.647Z,69.34
2023-03-22T09:23:47.671Z,70.05
2023-03-22T09:24:47.667Z,69.04
2023-03-22T09:25:47.625Z,69.34
2023-03-22T09:26:47.582Z,69.95
2023-03-22T09:27:47.565Z,70.45
2023-03-22T09:28:47.666Z,71.77
2023-03-22T09:29:47.604Z,71.40
2023-03-22T09:30:47.586Z,72.21
2023-03-22T09:31:47.514Z,72.58
2023-03-22T09:32:47.529Z,72.75
2023-03-22T09:33:47.531Z,73.56
2023-03-22T09:34:47.548Z,73.02
2023-03-22T09:35:47.578Z,73.05
2023-03-22T09:36:47.535Z,73.63
2023-03-22T09:37:47.453Z,73.80
2023-03-22T09:38:47.448Z,72.75
2023-03-22T09:39:47.434Z,72.99
2023-03-22T09:40:47.432Z,73.69
2023-03-22T09:41:47.508Z,73.46
2023-03-22T09:42:47.412Z,73.05
2023-03-22T09:43:47.405Z,72.48
2023-03-22T09:44:47.377Z,72.11
2023-03-22T09:45:47.360Z,72.11
2023-03-22T09:46:47.398Z,71.67
2023-03-22T09:47:47.407Z,70.89
2023-03-22T09:48:48.409Z,69.45
2023-03-22T09:49:53.857Z,69.31
2023-03-22T09:50:48.321Z,69.68
2023-03-22T09:51:47.355Z,70.19
2023-03-22T09:52:47.408Z,68.67
2023-03-22T09:53:47.265Z,68.24
2023-03-22T09:54:47.286Z,67.80
2023-03-22T09:55:47.239Z,68.26
2023-03-22T09:56:47.243Z,69.48
2023-03-22T09:57:47.249Z,69.14
2023-03-22T09:58:47.269Z,68.87
2023-03-22T09:59:47.211Z,68.37
2023-03-22T10:00:47.318Z,67.69
2023-03-22T10:01:47.340Z,67.18
2023-03-22T10:02:47.202Z,67.86
2023-03-22T10:03:47.217Z,67.63
2023-03-22T10:04:47.305Z,66.01
2023-03-22T10:05:47.119Z,65.13
2023-03-22T10:06:47.100Z,66.98
2023-03-22T10:07:47.101Z,66.64
2023-03-22T10:08:47.220Z,66.20
2023-03-22T10:09:47.164Z,66.58
2023-03-22T10:10:47.112Z,65.53
2023-03-22T10:11:47.068Z,65.03
2023-03-22T10:12:47.061Z,65.88
2023-03-22T10:13:47.160Z,65.57
2023-03-22T10:14:47.031Z,65.47
2023-03-22T10:15:47.100Z,65.22
2023-03-22T10:16:47.018Z,66.67
2023-03-22T10:17:46.984Z,66.95
2023-03-22T10:18:46.989Z,67.90
2023-03-22T10:19:47.068Z,67.12
2023-03-22T10:20:47.012Z,68.47
2023-03-22T10:21:46.965Z,67.55
2023-03-22T10:22:46.925Z,66.89
2023-03-22T10:23:46.954Z,67.60
2023-03-22T10:24:46.936Z,66.69
2023-03-22T10:25:46.894Z,67.39
2023-03-22T10:26:46.916Z,66.28
2023-03-22T10:27:46.884Z,66.18
2023-03-22T10:28:46.878Z,65.91
2023-03-22T10:29:46.848Z,67.32
2023-03-22T10:30:46.856Z,66.95
2023-03-22T10:31:46.934Z,67.83
2023-03-22T10:32:57.120Z,68.37
2023-03-22T10:33:47.810Z,68.13
2023-03-22T10:34:46.802Z,68.30
2023-03-22T10:35:46.780Z,69.27
2023-03-22T10:36:46.783Z,69.18
2023-03-22T10:37:46.767Z,68.97
2023-03-22T10:38:46.760Z,68.13
2023-03-22T10:39:46.732Z,68.40
2023-03-22T10:40:46.712Z,68.26
2023-03-22T10:41:46.699Z,68.47
2023-03-22T10:42:46.688Z,68.26
2023-03-22T10:43:46.677Z,66.95
2023-03-22T10:44:46.702Z,67.62
2023-03-22T10:45:46.658Z,69.18
2023-03-22T10:46:46.687Z,67.22
2023-03-22T10:47:46.660Z,67.22
2023-03-22T10:48:46.626Z,67.02
2023-03-22T10:49:46.757Z,67.35
2023-03-22T10:50:46.619Z,68.37
2023-03-22T10:51:46.575Z,67.66
2023-03-22T10:52:46.585Z,67.86
2023-03-22T10:53:46.547Z,67.29
2023-03-22T10:54:46.563Z,66.12
2023-03-22T10:55:46.551Z,66.02
2023-03-22T10:56:46.544Z,66.45
2023-03-22T10:57:46.534Z,66.41
2023-03-22T10:58:46.497Z,68.00
2023-03-22T10:59:47.301Z,66.65
2023-03-22T11:00:46.593Z,66.42
2023-03-22T11:01:46.666Z,66.49
2023-03-22T11:02:46.585Z,67.02
2023-03-22T11:03:46.577Z,66.59
2023-03-22T11:04:46.420Z,65.71
2023-03-22T11:05:46.425Z,66.42
2023-03-22T11:06:46.399Z,66.38
2023-03-22T11:07:46.502Z,67.46
2023-03-22T11:08:46.411Z,66.25
2023-03-22T11:09:46.366Z,65.38
2023-03-22T11:10:46.449Z,64.40
2023-03-22T11:11:46.369Z,63.76
2023-03-22T11:12:46.363Z,64.27
2023-03-22T11:13:46.414Z,63.87
2023-03-22T11:14:46.310Z,62.88
2023-03-22T11:15:46.332Z,64.07
2023-03-22T11:16:46.366Z,62.93
2023-03-22T11:17:46.279Z,62.40
2023-03-22T11:18:46.289Z,62.52
2023-03-22T11:19:46.248Z,63.10
2023-03-22T11:20:46.270Z,61.18
2023-03-22T11:21:46.223Z,61.16
2023-03-22T11:22:46.211Z,60.15
2023-03-22T11:23:46.197Z,60.75
2023-03-22T11:24:46.208Z,59.82
2023-03-22T11:25:46.183Z,58.87
2023-03-22T11:26:46.170Z,60.58
2023-03-22T11:27:46.151Z,59.95
2023-03-22T11:28:46.172Z,60.39
2023-03-22T11:29:46.181Z,59.69
2023-03-22T11:30:46.127Z,59.39
2023-03-22T11:31:46.199Z,59.22
2023-03-22T11:32:46.191Z,59.67
2023-03-22T11:33:46.082Z,59.44
2023-03-22T11:34:46.077Z,60.05
2023-03-22T11:35:46.196Z,59.24
2023-03-22T11:37:46.074Z,58.69
2023-03-22T11:38:47.378Z,58.87
2023-03-22T11:39:46.021Z,58.41
2023-03-22T11:40:46.057Z,59.16
2023-03-22T11:41:46.039Z,58.15
2023-03-22T11:42:46.096Z,59.08
2023-03-22T11:43:45.977Z,59.08
2023-03-22T11:44:45.992Z,59.99
2023-03-22T11:45:46.004Z,59.26
2023-03-22T11:46:46.013Z,59.59
2023-03-22T11:47:46.021Z,60.45
2023-03-22T11:48:46.039Z,61.05
2023-03-22T11:49:45.950Z,61.73
2023-03-22T11:50:45.910Z,60.02
2023-03-22T11:51:45.883Z,59.82
2023-03-22T11:52:45.909Z,59.89
2023-03-22T11:53:45.857Z,59.69
2023-03-22T11:54:45.961Z,59.28
2023-03-22T11:55:45.832Z,59.86
2023-03-22T11:56:45.882Z,58.65
2023-03-22T11:57:45.816Z,59.16
2023-03-22T11:58:45.886Z,60.77
2023-03-22T11:59:45.822Z,59.36
2023-03-22T12:00:45.777Z,59.13
2023-03-22T12:01:45.767Z,58.42
2023-03-22T12:02:45.878Z,57.92
2023-03-22T12:03:45.821Z,58.65
2023-03-22T12:04:45.844Z,58.65
2023-03-22T12:05:45.771Z,58.33
2023-03-22T12:06:45.715Z,57.83
2023-03-22T12:07:45.784Z,57.70
2023-03-22T12:08:45.674Z,56.60
2023-03-22T12:09:45.699Z,58.28
2023-03-22T12:10:45.658Z,57.37
2023-03-22T12:11:45.649Z,58.15
2023-03-22T12:12:45.632Z,56.44
2023-03-22T12:13:45.626Z,58.00
2023-03-22T12:14:45.657Z,57.46
2023-03-22T12:15:45.841Z,56.74
2023-03-22T12:16:45.647Z,54.72
2023-03-22T12:17:45.617Z,54.96
2023-03-22T12:18:45.574Z,53.97
2023-03-22T12:19:45.559Z,55.21
2023-03-22T12:20:45.631Z,55.21
2023-03-22T12:21:45.523Z,54.25
2023-03-22T12:22:45.540Z,55.51
2023-03-22T12:23:45.497Z,56.24
2023-03-22T12:24:45.506Z,54.80
2023-03-22T12:25:45.476Z,54.71
2023-03-22T12:26:45.487Z,55.38
2023-03-22T12:27:45.451Z,54.40
2023-03-22T12:28:45.456Z,53.34
2023-03-22T12:29:45.466Z,54.13
2023-03-22T12:30:45.430Z,55.31
2023-03-22T12:31:45.516Z,53.55
2023-03-22T12:32:45.449Z,56.07
2023-03-22T12:33:45.387Z,55.71
2023-03-22T12:34:45.381Z,55.03
2023-03-22T12:35:45.448Z,54.53
2023-03-22T12:36:45.348Z,54.93
2023-03-22T12:37:45.418Z,55.03
2023-03-22T12:38:45.320Z,55.39
2023-03-22T12:39:45.316Z,55.61
2023-03-22T12:40:45.306Z,54.78
2023-03-22T12:41:45.310Z,53.27
2023-03-22T12:42:51.520Z,53.37
2023-03-22T12:43:46.338Z,53.67
2023-03-22T12:44:52.789Z,53.65
2023-03-22T12:45:46.268Z,54.05
2023-03-22T12:46:45.282Z,53.70
2023-03-22T12:47:45.336Z,53.42
2023-03-22T12:48:46.415Z,52.84
2023-03-22T12:49:45.343Z,53.30
2023-03-22T12:50:45.335Z,52.49
2023-03-22T12:51:45.173Z,52.64
2023-03-22T12:52:46.099Z,53.45
2023-03-22T12:53:45.146Z,52.82